Kanagawamaru — JD3335 — position and weather

sailwx.info

Track history (hours):
 
Tides and Currents Weather Stations Pressure Air Temp Water Temp Dewpoint Dewpoint Depression Visibility Wind Speed Wind Dir Waves Ship Positions

Kanagawamaru

Last reported at 2018-Jun-18 15:00 UTC. Time now 2018-Jun-18 15:14 UTC.
Position N 35°27' E 139°40'.

Length 37 m; draft 3.6 m.

Type: Tug. MMSI: 431003436.

Date/timePositionNaut miles runAvg speedWind from/ knotsBaromVisibWave heightAir tempDewpointWater temp
2018-Jun-18 15:00N 35°27' E 139°40'0 0.1
2018-Jun-18 14:31N 35°27' E 139°40'0 0.0
2018-Jun-18 14:01N 35°27' E 139°40'0 0.1
2018-Jun-18 13:31N 35°27' E 139°40'0 0.0
2018-Jun-18 13:00N 35°27' E 139°40'0 0.1
2018-Jun-18 12:30N 35°27' E 139°40'0 0.1
2018-Jun-18 12:00N 35°27' E 139°40'0 0.0
2018-Jun-18 11:30N 35°27' E 139°40'0 0.0
2018-Jun-18 11:01N 35°27' E 139°40'0 0.0
2018-Jun-18 10:30N 35°27' E 139°40'0 0.0
2018-Jun-18 09:59N 35°27' E 139°40'0 0.0
2018-Jun-18 09:31N 35°27' E 139°40'0 0.0
2018-Jun-18 09:00N 35°27' E 139°40'0 0.0
2018-Jun-18 08:31N 35°27' E 139°40'0 0.0
2018-Jun-18 08:00N 35°27' E 139°40'0 0.0
2018-Jun-18 07:31N 35°27' E 139°40'0 0.1
2018-Jun-18 07:00N 35°27' E 139°40'0 0.1
2018-Jun-18 06:31N 35°27' E 139°40'0 0.0
2018-Jun-18 06:00N 35°27' E 139°40'0 0.1
2018-Jun-18 05:30N 35°27' E 139°40'0 0.1
2018-Jun-18 05:01N 35°27' E 139°40'0 0.1
2018-Jun-18 04:30N 35°27' E 139°40'0 0.1
2018-Jun-18 04:00N 35°27' E 139°40'0 0.1
2018-Jun-18 03:29N 35°27' E 139°40'0 0.0
2018-Jun-18 03:01N 35°27' E 139°40'0 0.1
2018-Jun-18 02:31N 35°27' E 139°40'0 0.1
2018-Jun-18 01:59N 35°27' E 139°40'0 0.1
2018-Jun-18 01:31N 35°27' E 139°40'1 1.2
2018-Jun-18 01:01N 35°27' E 139°40'1 1.7
2018-Jun-18 00:31N 35°27' E 139°41'1 1.9
2018-Jun-18 00:00N 35°27' E 139°40'0 0.0
2018-Jun-17 23:30N 35°27' E 139°40'0 0.1
2018-Jun-17 23:00N 35°27' E 139°40'0 0.1
2018-Jun-17 22:31N 35°27' E 139°40'0 0.0
2018-Jun-17 22:01N 35°27' E 139°40'0 0.0
2018-Jun-17 21:31N 35°27' E 139°40'0 0.0
2018-Jun-17 21:01N 35°27' E 139°40'0 0.0
2018-Jun-17 20:31N 35°27' E 139°40'0 0.0
2018-Jun-17 20:01N 35°27' E 139°40'0 0.0
2018-Jun-17 19:29N 35°27' E 139°40'0 0.0
2018-Jun-17 19:00N 35°27' E 139°40'0 0.0
2018-Jun-17 18:31N 35°27' E 139°40'0 0.0
2018-Jun-17 18:00N 35°27' E 139°40'0 0.0
2018-Jun-17 17:31N 35°27' E 139°40'0 0.0
2018-Jun-17 17:00N 35°27' E 139°40'0 0.0
2018-Jun-17 16:30N 35°27' E 139°40'0 0.0
2018-Jun-17 16:00N 35°27' E 139°40'0 0.0
2018-Jun-17 15:31N 35°27' E 139°40'0 0.0
2018-Jun-17 15:00N 35°27' E 139°40'0 0.0
2018-Jun-17 14:31N 35°27' E 139°40'0 0.0
2018-Jun-17 14:00N 35°27' E 139°40'0 0.0
2018-Jun-17 13:30N 35°27' E 139°40'0 0.0
2018-Jun-17 13:01N 35°27' E 139°40'0 0.0
2018-Jun-17 12:31N 35°27' E 139°40'0 0.0
2018-Jun-17 12:00N 35°27' E 139°40'0 0.0
2018-Jun-17 11:31N 35°27' E 139°40'0 0.0
2018-Jun-17 11:01N 35°27' E 139°40'0 0.0
2018-Jun-17 10:30N 35°27' E 139°40'0 0.0
2018-Jun-17 10:00N 35°27' E 139°40'0 0.0
2018-Jun-17 09:31N 35°27' E 139°40'0 0.0
2018-Jun-17 09:00N 35°27' E 139°40'0 0.1
2018-Jun-17 08:31N 35°27' E 139°40'4 7.4
2018-Jun-17 08:01N 35°29' E 139°43'1 2.9
2018-Jun-17 07:31N 35°30' E 139°45'0 0.3
2018-Jun-17 07:00N 35°30' E 139°45'3 5.5
2018-Jun-17 06:31N 35°29' E 139°42'2 4.3
2018-Jun-17 06:01N 35°27' E 139°43'1 1.5
2018-Jun-17 05:31N 35°27' E 139°44'3 6.6
2018-Jun-17 05:01N 35°27' E 139°40'0 0.0
2018-Jun-17 04:31N 35°27' E 139°40'0 0.0
2018-Jun-17 04:01N 35°27' E 139°40'0 0.0
2018-Jun-17 03:31N 35°27' E 139°40'0 0.0
2018-Jun-17 03:01N 35°27' E 139°40'0 0.0
2018-Jun-17 02:29N 35°27' E 139°40'0 0.0
2018-Jun-17 02:01N 35°27' E 139°40'0 0.0
2018-Jun-17 01:31N 35°27' E 139°40'1 2.0
2018-Jun-17 01:00N 35°27' E 139°41'1 1.6
2018-Jun-17 00:31N 35°27' E 139°42'2 4.2
2018-Jun-17 00:01N 35°27' E 139°39'0 0.0
2018-Jun-16 23:31N 35°27' E 139°39'0 0.0
2018-Jun-16 23:01N 35°27' E 139°39'3 5.2
2018-Jun-16 22:31N 35°27' E 139°43'5 9.7
2018-Jun-16 22:00N 35°30' E 139°48'2 3.5
2018-Jun-16 21:30N 35°31' E 139°46'4 7.1
2018-Jun-16 21:00N 35°29' E 139°42'3 6.1
2018-Jun-16 20:31N 35°27' E 139°40'0 0.0
2018-Jun-16 20:00N 35°27' E 139°40'0 0.0
2018-Jun-16 19:30N 35°27' E 139°40'0 0.0
2018-Jun-16 19:00N 35°27' E 139°40'0 0.0
2018-Jun-16 18:30N 35°27' E 139°40'0 0.0
2018-Jun-16 18:01N 35°27' E 139°40'0 0.0
2018-Jun-16 17:31N 35°27' E 139°40'0 0.0
2018-Jun-16 17:01N 35°27' E 139°40'0 0.0
2018-Jun-16 16:31N 35°27' E 139°40'0 0.0
2018-Jun-16 16:01N 35°27' E 139°40'0 0.0
2018-Jun-16 15:30N 35°27' E 139°40'0 0.0
2018-Jun-16 15:01N 35°27' E 139°40'0 0.0
2018-Jun-16 14:31N 35°27' E 139°40'0 0.0
2018-Jun-16 14:01N 35°27' E 139°40'0 0.0
2018-Jun-16 13:30N 35°27' E 139°40'0 0.0
2018-Jun-16 13:01N 35°27' E 139°40'0 0.0
2018-Jun-16 12:30N 35°27' E 139°40'0 0.0
2018-Jun-16 12:00N 35°27' E 139°40'0 0.0
2018-Jun-16 11:31N 35°27' E 139°40'0 0.0
2018-Jun-16 11:01N 35°27' E 139°40'0 0.0
2018-Jun-16 10:31N 35°27' E 139°40'0 0.0
2018-Jun-16 10:01N 35°27' E 139°40'0 0.0
2018-Jun-16 09:31N 35°27' E 139°40'0 0.0
2018-Jun-16 09:01N 35°27' E 139°40'0 0.0
2018-Jun-16 08:31N 35°27' E 139°40'0 0.0
2018-Jun-16 08:00N 35°27' E 139°40'0 0.0
2018-Jun-16 07:31N 35°27' E 139°40'0 0.0
2018-Jun-16 07:00N 35°27' E 139°40'2 3.6
2018-Jun-16 06:30N 35°28' E 139°41'4 8.0
2018-Jun-16 06:01N 35°30' E 139°45'1 1.8
2018-Jun-16 05:31N 35°31' E 139°46'1 2.8
2018-Jun-16 05:00N 35°30' E 139°45'3 6.8
2018-Jun-16 04:30N 35°27' E 139°43'1 1.8
2018-Jun-16 04:00N 35°28' E 139°44'0 0.4
2018-Jun-16 03:30N 35°28' E 139°44'0 0.0
2018-Jun-16 03:01N 35°28' E 139°44'0 0.0
2018-Jun-16 02:30N 35°28' E 139°44'1 2.1
2018-Jun-16 02:01N 35°29' E 139°45'1 2.5
2018-Jun-16 01:29N 35°30' E 139°46'1 2.5
2018-Jun-16 01:01N 35°30' E 139°47'1 1.9
2018-Jun-16 00:31N 35°29' E 139°46'4 7.9
2018-Jun-16 00:01N 35°27' E 139°42'2 3.3
2018-Jun-15 23:31N 35°27' E 139°40'0 0.0
2018-Jun-15 23:01N 35°27' E 139°40'0 0.0
2018-Jun-15 22:31N 35°27' E 139°40'0 0.0
2018-Jun-15 22:01N 35°27' E 139°40'0 0.0
2018-Jun-15 21:31N 35°27' E 139°40'0 0.0
2018-Jun-15 21:01N 35°27' E 139°40'0 0.0
2018-Jun-15 20:30N 35°27' E 139°40'0 0.0
2018-Jun-15 20:01N 35°27' E 139°40'0 0.0
2018-Jun-15 19:30N 35°27' E 139°40'0 0.0
2018-Jun-15 19:01N 35°27' E 139°40'0 0.0
2018-Jun-15 18:31N 35°27' E 139°40'0 0.0
2018-Jun-15 18:01N 35°27' E 139°40'0 0.0
2018-Jun-15 17:31N 35°27' E 139°40'0 0.0
2018-Jun-15 17:01N 35°27' E 139°40'0 0.0
2018-Jun-15 16:31N 35°27' E 139°40'0 0.0
2018-Jun-15 16:01N 35°27' E 139°40'0 0.0
2018-Jun-15 15:31N 35°27' E 139°40'0 0.0
2018-Jun-15 15:01N 35°27' E 139°40'0 0.0
2018-Jun-15 14:31N 35°27' E 139°40'0 0.0
2018-Jun-15 14:01N 35°27' E 139°40'0 0.0
2018-Jun-15 13:31N 35°27' E 139°40'0 0.0
2018-Jun-15 13:00N 35°27' E 139°40'0 0.0
2018-Jun-15 12:31N 35°27' E 139°40'0 0.0
2018-Jun-15 12:01N 35°27' E 139°40'0 0.0
2018-Jun-15 11:31N 35°27' E 139°40'0 0.0
2018-Jun-15 11:01N 35°27' E 139°40'0 0.0
2018-Jun-15 10:31N 35°27' E 139°40'0 0.0
2018-Jun-15 10:01N 35°27' E 139°40'0 0.0
2018-Jun-15 09:29N 35°27' E 139°40'0 0.0
2018-Jun-15 09:00N 35°27' E 139°40'0 0.0
2018-Jun-15 08:31N 35°27' E 139°40'0 0.0
2018-Jun-15 08:01N 35°27' E 139°40'0 0.0
2018-Jun-15 07:31N 35°27' E 139°40'0 0.0
2018-Jun-15 07:01N 35°27' E 139°40'0 0.0
2018-Jun-15 06:31N 35°27' E 139°40'0 0.0
2018-Jun-15 06:00N 35°27' E 139°40'0 0.0
2018-Jun-15 05:31N 35°27' E 139°40'0 0.0
2018-Jun-15 05:01N 35°27' E 139°40'0 0.0
2018-Jun-15 04:31N 35°27' E 139°40'0 0.0
2018-Jun-15 04:01N 35°27' E 139°40'0 0.0
2018-Jun-15 03:30N 35°27' E 139°40'0 0.0
2018-Jun-15 03:01N 35°27' E 139°40'0 0.0
2018-Jun-15 02:31N 35°27' E 139°40'0 0.0
2018-Jun-15 02:00N 35°27' E 139°40'0 0.0
2018-Jun-15 01:31N 35°27' E 139°40'0 0.0
2018-Jun-15 01:01N 35°27' E 139°40'0 0.0
2018-Jun-15 00:30N 35°27' E 139°40'0 0.0
2018-Jun-15 00:01N 35°27' E 139°40'0 0.0
2018-Jun-14 23:31N 35°27' E 139°40'0 0.0
2018-Jun-14 23:01N 35°27' E 139°40'2 3.1
2018-Jun-14 22:31N 35°28' E 139°41'0 0.3
2018-Jun-14 22:01N 35°28' E 139°41'1 1.4
2018-Jun-14 21:30N 35°28' E 139°42'1 1.9
2018-Jun-14 21:00N 35°28' E 139°42'0 0.0
2018-Jun-14 20:31N 35°28' E 139°42'0 0.0
2018-Jun-14 20:01N 35°28' E 139°42'0 0.4
2018-Jun-14 19:31N 35°28' E 139°42'0 0.9
2018-Jun-14 19:01N 35°28' E 139°41'0 0.0
2018-Jun-14 18:30N 35°28' E 139°41'1 2.6
2018-Jun-14 18:01N 35°27' E 139°40'0 0.0
2018-Jun-14 17:31N 35°27' E 139°40'0 0.0
2018-Jun-14 17:01N 35°27' E 139°40'0 0.0
2018-Jun-14 16:31N 35°27' E 139°40'0 0.0
2018-Jun-14 16:00N 35°27' E 139°40'0 0.0
2018-Jun-14 15:31N 35°27' E 139°40'0 0.0
2018-Jun-14 15:00N 35°27' E 139°40'0 0.0
2018-Jun-14 14:30N 35°27' E 139°40'0 0.0
2018-Jun-14 14:01N 35°27' E 139°40'0 0.0
2018-Jun-14 13:31N 35°27' E 139°40'0 0.0
2018-Jun-14 13:01N 35°27' E 139°40'0 0.0
2018-Jun-14 12:31N 35°27' E 139°40'0 0.0
2018-Jun-14 12:01N 35°27' E 139°40'0 0.0
2018-Jun-14 11:31N 35°27' E 139°40'0 0.0
2018-Jun-14 11:01N 35°27' E 139°40'0 0.0
2018-Jun-14 10:31N 35°27' E 139°40'0 0.6
2018-Jun-14 10:01N 35°27' E 139°41'0 0.4
2018-Jun-14 09:30N 35°27' E 139°40'0 0.3
2018-Jun-14 09:01N 35°27' E 139°41'0 0.0
2018-Jun-14 08:30N 35°27' E 139°41'3 5.7
2018-Jun-14 08:01N 35°29' E 139°42'4 6.7
2018-Jun-14 07:28N 35°31' E 139°46'1 2.3
2018-Jun-14 07:00N 35°30' E 139°45'3 6.7
2018-Jun-14 06:31N 35°28' E 139°42'2 3.6
2018-Jun-14 06:00N 35°27' E 139°44'0 0.5
2018-Jun-14 05:31N 35°26' E 139°44'2 3.2
2018-Jun-14 05:00N 35°28' E 139°44'0 0.0
2018-Jun-14 04:30N 35°28' E 139°44'0 0.9
2018-Jun-14 03:59N 35°28' E 139°43'0 0.0
2018-Jun-14 03:25N 35°28' E 139°43'0 0.0
2018-Jun-14 02:57N 35°28' E 139°43'0 1.1
2018-Jun-14 02:30N 35°27' E 139°43'2 4.4
2018-Jun-14 02:01N 35°26' E 139°45'2 4.7
2018-Jun-14 01:31N 35°27' E 139°43'0 1.0
2018-Jun-14 01:01N 35°27' E 139°42'0 0.0
2018-Jun-14 00:30N 35°27' E 139°42'0 0.0
2018-Jun-14 00:01N 35°27' E 139°42'0 0.0
2018-Jun-13 23:31N 35°27' E 139°42'0 0.0
2018-Jun-13 23:00N 35°27' E 139°42'1 1.7
2018-Jun-13 22:31N 35°28' E 139°42'1 1.9
2018-Jun-13 22:01N 35°27' E 139°43'0 0.8
2018-Jun-13 21:30N 35°27' E 139°43'2 4.0
2018-Jun-13 21:01N 35°27' E 139°40'0 0.0
2018-Jun-13 20:31N 35°27' E 139°40'0 0.0
2018-Jun-13 20:01N 35°27' E 139°40'0 0.0
2018-Jun-13 19:30N 35°27' E 139°40'0 0.0
2018-Jun-13 19:01N 35°27' E 139°40'0 0.0
2018-Jun-13 18:30N 35°27' E 139°40'0 0.0
2018-Jun-13 18:01N 35°27' E 139°40'0 0.0
2018-Jun-13 17:31N 35°27' E 139°40'0 0.0
2018-Jun-13 17:01N 35°27' E 139°40'0 0.0
2018-Jun-13 16:30N 35°27' E 139°40'0 0.0
2018-Jun-13 16:01N 35°27' E 139°40'0 0.0
2018-Jun-13 15:31N 35°27' E 139°40'0 0.0
2018-Jun-13 14:59N 35°27' E 139°40'0 0.0
2018-Jun-13 14:30N 35°27' E 139°40'0 0.0
2018-Jun-13 14:01N 35°27' E 139°40'0 0.0
2018-Jun-13 13:30N 35°27' E 139°40'0 0.0
2018-Jun-13 13:01N 35°27' E 139°40'0 0.0
2018-Jun-13 12:31N 35°27' E 139°40'0 0.0
2018-Jun-13 12:01N 35°27' E 139°40'0 0.0
2018-Jun-13 11:31N 35°27' E 139°40'0 0.0
2018-Jun-13 11:00N 35°27' E 139°40'0 0.0
2018-Jun-13 10:31N 35°27' E 139°40'0 0.0
2018-Jun-13 10:00N 35°27' E 139°40'0 0.0
2018-Jun-13 09:31N 35°27' E 139°40'0 0.0
2018-Jun-13 09:01N 35°27' E 139°40'0 0.9
2018-Jun-13 08:31N 35°27' E 139°41'4 7.4
2018-Jun-13 08:01N 35°30' E 139°44'2 4.8
2018-Jun-13 07:30N 35°31' E 139°46'1 1.5
2018-Jun-13 06:55N 35°30' E 139°47'2 5.7
2018-Jun-13 06:31N 35°28' E 139°47'3 5.2
2018-Jun-13 06:00N 35°30' E 139°47'1 1.6
2018-Jun-13 05:30N 35°31' E 139°46'2 4.1
2018-Jun-13 05:01N 35°30' E 139°44'3 5.5
2018-Jun-13 04:31N 35°27' E 139°44'1 1.2
2018-Jun-13 04:01N 35°26' E 139°44'4 7.0
2018-Jun-13 03:31N 35°27' E 139°40'1 1.6
2018-Jun-13 03:01N 35°27' E 139°40'0 0.0
2018-Jun-13 02:31N 35°27' E 139°40'0 0.0
2018-Jun-13 02:01N 35°27' E 139°40'0 0.0
2018-Jun-13 01:31N 35°27' E 139°40'0 0.0
2018-Jun-13 01:00N 35°27' E 139°40'0 0.0
2018-Jun-13 00:30N 35°27' E 139°40'0 0.0
2018-Jun-13 00:00N 35°27' E 139°40'0 0.0
2018-Jun-12 23:31N 35°27' E 139°40'0 0.0
2018-Jun-12 23:01N 35°27' E 139°40'0 0.0
2018-Jun-12 22:30N 35°27' E 139°40'0 0.0
2018-Jun-12 22:00N 35°27' E 139°40'0 0.0
2018-Jun-12 21:31N 35°27' E 139°40'0 0.0
2018-Jun-12 21:00N 35°27' E 139°40'0 0.0
2018-Jun-12 20:31N 35°27' E 139°40'0 0.0
2018-Jun-12 20:00N 35°27' E 139°40'0 0.0
2018-Jun-12 19:31N 35°27' E 139°40'0 0.0
2018-Jun-12 19:01N 35°27' E 139°40'0 0.0
2018-Jun-12 18:31N 35°27' E 139°40'0 0.0
2018-Jun-12 18:00N 35°27' E 139°40'0 0.0
2018-Jun-12 17:30N 35°27' E 139°40'0 0.0
2018-Jun-12 17:00N 35°27' E 139°40'0 0.0
2018-Jun-12 16:31N 35°27' E 139°40'0 0.0
2018-Jun-12 16:01N 35°27' E 139°40'0 0.0
2018-Jun-12 15:31N 35°27' E 139°40'0 0.0
2018-Jun-12 15:00N 35°27' E 139°40'0 0.0
2018-Jun-12 14:31N 35°27' E 139°40'0 0.0
2018-Jun-12 14:00N 35°27' E 139°40'0 0.0
2018-Jun-12 13:31N 35°27' E 139°40'0 0.0
2018-Jun-12 13:00N 35°27' E 139°40'0 0.0
2018-Jun-12 12:31N 35°27' E 139°40'0 0.0
2018-Jun-12 12:01N 35°27' E 139°40'0 0.0
2018-Jun-12 11:30N 35°27' E 139°40'0 0.0
2018-Jun-12 11:01N 35°27' E 139°40'0 0.0
2018-Jun-12 10:31N 35°27' E 139°40'0 0.0
2018-Jun-12 10:01N 35°27' E 139°40'0 0.0
2018-Jun-12 09:31N 35°27' E 139°40'0 0.0
2018-Jun-12 09:01N 35°27' E 139°40'0 0.0
2018-Jun-12 08:30N 35°27' E 139°40'0 0.0
2018-Jun-12 08:01N 35°27' E 139°40'0 0.0
2018-Jun-12 07:30N 35°27' E 139°40'0 0.0
2018-Jun-12 07:01N 35°27' E 139°40'0 0.0
2018-Jun-12 06:31N 35°27' E 139°40'0 0.0
2018-Jun-12 06:00N 35°27' E 139°40'0 0.0
2018-Jun-12 05:31N 35°27' E 139°40'0 0.0
2018-Jun-12 05:01N 35°27' E 139°40'0 0.0
2018-Jun-12 04:31N 35°27' E 139°40'0 0.0
2018-Jun-12 04:01N 35°27' E 139°40'0 0.0
2018-Jun-12 03:31N 35°27' E 139°40'0 0.0
2018-Jun-12 03:01N 35°27' E 139°40'0 0.0
2018-Jun-12 02:30N 35°27' E 139°40'0 0.0
2018-Jun-12 02:01N 35°27' E 139°40'0 0.0
2018-Jun-12 01:30N 35°27' E 139°40'0 0.0
2018-Jun-12 01:00N 35°27' E 139°40'0 0.0
2018-Jun-12 00:30N 35°27' E 139°40'0 0.0
2018-Jun-12 00:01N 35°27' E 139°40'0 0.0
2018-Jun-11 23:31N 35°27' E 139°40'0 0.0
2018-Jun-11 23:00N 35°27' E 139°40'1 2.1
2018-Jun-11 22:31N 35°27' E 139°41'0 0.9
2018-Jun-11 22:01N 35°27' E 139°42'2 4.1
2018-Jun-11 21:30N 35°25' E 139°43'2 3.5
2018-Jun-11 21:00N 35°26' E 139°42'1 1.2
2018-Jun-11 20:30N 35°26' E 139°41'0 0.1
2018-Jun-11 20:01N 35°26' E 139°41'0 0.8
2018-Jun-11 19:31N 35°27' E 139°41'0 0.0
2018-Jun-11 18:59N 35°27' E 139°41'0 0.0
2018-Jun-11 18:31N 35°27' E 139°41'0 0.0
2018-Jun-11 18:01N 35°27' E 139°41'0 0.0
2018-Jun-11 17:29N 35°27' E 139°41'0 0.0
2018-Jun-11 17:01N 35°27' E 139°41'0 0.0
2018-Jun-11 16:30N 35°27' E 139°41'0 0.0
2018-Jun-11 16:01N 35°27' E 139°41'0 0.0
2018-Jun-11 15:30N 35°27' E 139°41'0 0.0
2018-Jun-11 15:01N 35°27' E 139°41'0 0.0
2018-Jun-11 14:30N 35°27' E 139°41'0 0.0
2018-Jun-11 14:00N 35°27' E 139°41'0 0.0
2018-Jun-11 13:30N 35°27' E 139°41'0 0.0
2018-Jun-11 13:01N 35°27' E 139°41'0 0.0
2018-Jun-11 12:30N 35°27' E 139°41'0 0.0
2018-Jun-11 12:01N 35°27' E 139°41'0 0.0
2018-Jun-11 11:31N 35°27' E 139°41'0 0.0
2018-Jun-11 11:00N 35°27' E 139°41'0 0.0
2018-Jun-11 10:30N 35°27' E 139°41'0 0.4
2018-Jun-11 10:01N 35°27' E 139°41'1 2.2
2018-Jun-11 09:30N 35°26' E 139°42'0 0.5
2018-Jun-11 09:01N 35°27' E 139°42'0 0.6
2018-Jun-11 08:31N 35°27' E 139°42'0 0.0
2018-Jun-11 08:01N 35°27' E 139°42'0 0.0
2018-Jun-11 07:30N 35°27' E 139°42'1 1.5
2018-Jun-11 07:00N 35°27' E 139°41'0 0.3
2018-Jun-11 06:31N 35°27' E 139°41'1 2.0
2018-Jun-11 06:00N 35°27' E 139°40'0 0.0
2018-Jun-11 05:31N 35°27' E 139°40'0 0.0
2018-Jun-11 05:01N 35°27' E 139°40'0 0.0
2018-Jun-11 04:31N 35°27' E 139°40'0 0.0
2018-Jun-11 04:00N 35°27' E 139°40'0 0.0
2018-Jun-11 03:30N 35°27' E 139°40'0 0.0
2018-Jun-11 03:01N 35°27' E 139°40'0 0.0
2018-Jun-11 02:31N 35°27' E 139°40'0 0.0
2018-Jun-11 02:01N 35°27' E 139°40'0 0.0
2018-Jun-11 01:30N 35°27' E 139°40'0 0.0
2018-Jun-11 01:01N 35°27' E 139°40'0 0.0
2018-Jun-11 00:31N 35°27' E 139°40'0 0.0
2018-Jun-11 00:01N 35°27' E 139°40'0 0.0
2018-Jun-10 23:31N 35°27' E 139°40'0 0.0
2018-Jun-10 22:59N 35°27' E 139°40'0 0.0
2018-Jun-10 22:31N 35°27' E 139°40'0 0.0
2018-Jun-10 22:01N 35°27' E 139°40'0 0.0
2018-Jun-10 21:30N 35°27' E 139°40'0 0.0
2018-Jun-10 21:01N 35°27' E 139°40'0 0.0
2018-Jun-10 20:31N 35°27' E 139°40'0 0.0
2018-Jun-10 20:01N 35°27' E 139°40'0 0.0
2018-Jun-10 19:31N 35°27' E 139°40'0 0.0
2018-Jun-10 19:00N 35°27' E 139°40'0 0.0
2018-Jun-10 18:31N 35°27' E 139°40'0 0.0
2018-Jun-10 18:00N 35°27' E 139°40'0 0.0
2018-Jun-10 17:31N 35°27' E 139°40'0 0.0
2018-Jun-10 17:01N 35°27' E 139°40'0 0.0
2018-Jun-10 16:30N 35°27' E 139°40'0 0.0
2018-Jun-10 16:01N 35°27' E 139°40'0 0.0
2018-Jun-10 15:31N 35°27' E 139°40'0 0.0
2018-Jun-10 15:01N 35°27' E 139°40'0 0.0
2018-Jun-10 14:00N 35°27' E 139°40'0 0.0
2018-Jun-10 13:30N 35°27' E 139°40'0 0.0
2018-Jun-10 13:00N 35°27' E 139°40'0 0.0
2018-Jun-10 12:31N 35°27' E 139°40'0 0.0
2018-Jun-10 12:00N 35°27' E 139°40'0 0.0
2018-Jun-10 11:31N 35°27' E 139°40'0 0.0
2018-Jun-10 11:00N 35°27' E 139°40'0 0.0
2018-Jun-10 10:31N 35°27' E 139°40'0 0.0
2018-Jun-10 10:01N 35°27' E 139°40'0 0.0
2018-Jun-10 09:30N 35°27' E 139°40'0 0.0
2018-Jun-10 09:01N 35°27' E 139°40'0 0.0
2018-Jun-10 08:31N 35°27' E 139°40'0 0.0
2018-Jun-10 08:00N 35°27' E 139°40'0 0.0
2018-Jun-10 07:31N 35°27' E 139°40'0 0.0
2018-Jun-10 07:01N 35°27' E 139°40'0 0.0
2018-Jun-10 06:31N 35°27' E 139°40'0 0.0
2018-Jun-10 06:01N 35°27' E 139°40'0 0.0
2018-Jun-10 05:31N 35°27' E 139°40'0 0.0
2018-Jun-10 05:00N 35°27' E 139°40'0 0.0
2018-Jun-10 04:31N 35°27' E 139°40'0 0.0
2018-Jun-10 04:00N 35°27' E 139°40'0 0.0
2018-Jun-10 03:31N 35°27' E 139°40'0 0.0
2018-Jun-10 03:01N 35°27' E 139°40'0 0.0
2018-Jun-10 02:31N 35°27' E 139°40'1 1.3
2018-Jun-10 02:00N 35°27' E 139°40'1 2.0
2018-Jun-10 01:31N 35°28' E 139°41'1 1.6
2018-Jun-10 01:00N 35°28' E 139°42'3 6.3
2018-Jun-10 00:31N 35°26' E 139°44'2 4.0
2018-Jun-10 00:01N 35°28' E 139°44'0 0.0
2018-Jun-09 23:31N 35°28' E 139°44'0 0.0
2018-Jun-09 23:00N 35°28' E 139°44'2 3.9
2018-Jun-09 22:30N 35°29' E 139°45'1 1.7
2018-Jun-09 21:55N 35°28' E 139°45'1 1.7
2018-Jun-09 21:30N 35°28' E 139°46'3 6.6
2018-Jun-09 21:01N 35°27' E 139°42'1 2.5
2018-Jun-09 20:31N 35°27' E 139°40'0 0.0
2018-Jun-09 19:57N 35°27' E 139°40'0 0.0
2018-Jun-09 19:31N 35°27' E 139°40'0 0.0
2018-Jun-09 19:00N 35°27' E 139°40'0 0.0
2018-Jun-09 18:30N 35°27' E 139°40'0 0.0
2018-Jun-09 18:01N 35°27' E 139°40'0 0.0
2018-Jun-09 17:30N 35°27' E 139°40'0 0.0
2018-Jun-09 16:59N 35°27' E 139°40'0 0.0
2018-Jun-09 16:31N 35°27' E 139°40'0 0.0
2018-Jun-09 16:01N 35°27' E 139°40'0 0.0
2018-Jun-09 15:01N 35°27' E 139°40'0 0.0
2018-Jun-09 14:30N 35°27' E 139°40'0 0.0
2018-Jun-09 13:59N 35°27' E 139°40'0 0.0
2018-Jun-09 13:30N 35°27' E 139°40'0 0.0
2018-Jun-09 13:01N 35°27' E 139°40'0 0.0
2018-Jun-09 12:30N 35°27' E 139°40'0 0.0
2018-Jun-09 12:01N 35°27' E 139°40'0 0.0
2018-Jun-09 11:31N 35°27' E 139°40'0 0.0
2018-Jun-09 11:00N 35°27' E 139°40'0 0.2
2018-Jun-09 10:31N 35°27' E 139°40'3 6.8
2018-Jun-09 10:01N 35°28' E 139°44'3 6.0
2018-Jun-09 09:31N 35°30' E 139°46'1 2.1
2018-Jun-09 09:01N 35°31' E 139°45'4 8.0
2018-Jun-09 08:30N 35°28' E 139°41'2 3.4
2018-Jun-09 08:01N 35°27' E 139°41'0 0.0
2018-Jun-09 07:31N 35°27' E 139°41'0 0.0
2018-Jun-09 07:01N 35°27' E 139°41'0 0.0
2018-Jun-09 06:31N 35°27' E 139°41'0 0.0
2018-Jun-09 06:00N 35°27' E 139°41'0 0.0
2018-Jun-09 05:31N 35°27' E 139°41'0 0.0
2018-Jun-09 05:01N 35°27' E 139°41'0 0.0
2018-Jun-09 04:30N 35°27' E 139°41'0 0.0
2018-Jun-09 04:00N 35°27' E 139°41'0 0.0
2018-Jun-09 03:30N 35°27' E 139°41'0 0.1
2018-Jun-09 03:00N 35°27' E 139°41'0 0.0
2018-Jun-09 02:30N 35°27' E 139°41'0 0.0
2018-Jun-09 02:01N 35°27' E 139°41'0 0.0
2018-Jun-09 01:29N 35°27' E 139°41'0 0.0
2018-Jun-09 01:01N 35°27' E 139°41'3 6.0
2018-Jun-09 00:31N 35°29' E 139°43'2 4.9
2018-Jun-09 00:00N 35°31' E 139°45'1 1.3
2018-Jun-08 23:30N 35°30' E 139°45'3 6.2
2018-Jun-08 23:01N 35°28' E 139°42'3 6.0
2018-Jun-08 22:29N 35°28' E 139°46'2 3.7
2018-Jun-08 22:01N 35°28' E 139°44'3 6.6
2018-Jun-08 21:30N 35°27' E 139°40'0 0.0
2018-Jun-08 21:00N 35°27' E 139°40'0 0.0
2018-Jun-08 20:31N 35°27' E 139°40'0 0.0
2018-Jun-08 19:58N 35°27' E 139°40'0 0.0
2018-Jun-08 19:31N 35°27' E 139°40'0 0.0
2018-Jun-08 19:01N 35°27' E 139°40'0 0.0
2018-Jun-08 18:31N 35°27' E 139°40'0 0.0
2018-Jun-08 18:00N 35°27' E 139°40'0 0.0
2018-Jun-08 17:30N 35°27' E 139°40'0 0.0
2018-Jun-08 16:59N 35°27' E 139°40'0 0.0
2018-Jun-08 16:31N 35°27' E 139°40'0 0.0
2018-Jun-08 16:01N 35°27' E 139°40'0 0.0
2018-Jun-08 15:31N 35°27' E 139°40'0 0.0
2018-Jun-08 15:00N 35°27' E 139°40'  
Track history (hours):
 
Tides and Currents Weather Stations Pressure Air Temp Water Temp Dewpoint Dewpoint Depression Visibility Wind Speed Wind Dir Waves Ship Positions

Kanagawamaru

Last reported at 2018-Jun-18 15:00 UTC. Time now 2018-Jun-18 15:14 UTC.
Position N 35°27' E 139°40'.

Length 37 m; draft 3.6 m.

Type: Tug. MMSI: 431003436.

Date/timePositionNaut miles runAvg speedWind from/ knotsBaromVisibWave heightAir tempDewpointWater temp
2018-Jun-18 15:00N 35°27' E 139°40'0 0.1
2018-Jun-18 14:31N 35°27' E 139°40'0 0.0
2018-Jun-18 14:01N 35°27' E 139°40'0 0.1
2018-Jun-18 13:31N 35°27' E 139°40'0 0.0
2018-Jun-18 13:00N 35°27' E 139°40'0 0.1
2018-Jun-18 12:30N 35°27' E 139°40'0 0.1
2018-Jun-18 12:00N 35°27' E 139°40'0 0.0
2018-Jun-18 11:30N 35°27' E 139°40'0 0.0
2018-Jun-18 11:01N 35°27' E 139°40'0 0.0
2018-Jun-18 10:30N 35°27' E 139°40'0 0.0
2018-Jun-18 09:59N 35°27' E 139°40'0 0.0
2018-Jun-18 09:31N 35°27' E 139°40'0 0.0
2018-Jun-18 09:00N 35°27' E 139°40'0 0.0
2018-Jun-18 08:31N 35°27' E 139°40'0 0.0
2018-Jun-18 08:00N 35°27' E 139°40'0 0.0
2018-Jun-18 07:31N 35°27' E 139°40'0 0.1
2018-Jun-18 07:00N 35°27' E 139°40'0 0.1
2018-Jun-18 06:31N 35°27' E 139°40'0 0.0
2018-Jun-18 06:00N 35°27' E 139°40'0 0.1
2018-Jun-18 05:30N 35°27' E 139°40'0 0.1
2018-Jun-18 05:01N 35°27' E 139°40'0 0.1
2018-Jun-18 04:30N 35°27' E 139°40'0 0.1
2018-Jun-18 04:00N 35°27' E 139°40'0 0.1
2018-Jun-18 03:29N 35°27' E 139°40'0 0.0
2018-Jun-18 03:01N 35°27' E 139°40'0 0.1
2018-Jun-18 02:31N 35°27' E 139°40'0 0.1
2018-Jun-18 01:59N 35°27' E 139°40'0 0.1
2018-Jun-18 01:31N 35°27' E 139°40'1 1.2
2018-Jun-18 01:01N 35°27' E 139°40'1 1.7
2018-Jun-18 00:31N 35°27' E 139°41'1 1.9
2018-Jun-18 00:00N 35°27' E 139°40'0 0.0
2018-Jun-17 23:30N 35°27' E 139°40'0 0.1
2018-Jun-17 23:00N 35°27' E 139°40'0 0.1
2018-Jun-17 22:31N 35°27' E 139°40'0 0.0
2018-Jun-17 22:01N 35°27' E 139°40'0 0.0
2018-Jun-17 21:31N 35°27' E 139°40'0 0.0
2018-Jun-17 21:01N 35°27' E 139°40'0 0.0
2018-Jun-17 20:31N 35°27' E 139°40'0 0.0
2018-Jun-17 20:01N 35°27' E 139°40'0 0.0
2018-Jun-17 19:29N 35°27' E 139°40'0 0.0
2018-Jun-17 19:00N 35°27' E 139°40'0 0.0
2018-Jun-17 18:31N 35°27' E 139°40'0 0.0
2018-Jun-17 18:00N 35°27' E 139°40'0 0.0
2018-Jun-17 17:31N 35°27' E 139°40'0 0.0
2018-Jun-17 17:00N 35°27' E 139°40'0 0.0
2018-Jun-17 16:30N 35°27' E 139°40'0 0.0
2018-Jun-17 16:00N 35°27' E 139°40'0 0.0
2018-Jun-17 15:31N 35°27' E 139°40'0 0.0
2018-Jun-17 15:00N 35°27' E 139°40'0 0.0
2018-Jun-17 14:31N 35°27' E 139°40'0 0.0
2018-Jun-17 14:00N 35°27' E 139°40'0 0.0
2018-Jun-17 13:30N 35°27' E 139°40'0 0.0
2018-Jun-17 13:01N 35°27' E 139°40'0 0.0
2018-Jun-17 12:31N 35°27' E 139°40'0 0.0
2018-Jun-17 12:00N 35°27' E 139°40'0 0.0
2018-Jun-17 11:31N 35°27' E 139°40'0 0.0
2018-Jun-17 11:01N 35°27' E 139°40'0 0.0
2018-Jun-17 10:30N 35°27' E 139°40'0 0.0
2018-Jun-17 10:00N 35°27' E 139°40'0 0.0
2018-Jun-17 09:31N 35°27' E 139°40'0 0.0
2018-Jun-17 09:00N 35°27' E 139°40'0 0.1
2018-Jun-17 08:31N 35°27' E 139°40'4 7.4
2018-Jun-17 08:01N 35°29' E 139°43'1 2.9
2018-Jun-17 07:31N 35°30' E 139°45'0 0.3
2018-Jun-17 07:00N 35°30' E 139°45'3 5.5
2018-Jun-17 06:31N 35°29' E 139°42'2 4.3
2018-Jun-17 06:01N 35°27' E 139°43'1 1.5
2018-Jun-17 05:31N 35°27' E 139°44'3 6.6
2018-Jun-17 05:01N 35°27' E 139°40'0 0.0
2018-Jun-17 04:31N 35°27' E 139°40'0 0.0
2018-Jun-17 04:01N 35°27' E 139°40'0 0.0
2018-Jun-17 03:31N 35°27' E 139°40'0 0.0
2018-Jun-17 03:01N 35°27' E 139°40'0 0.0
2018-Jun-17 02:29N 35°27' E 139°40'0 0.0
2018-Jun-17 02:01N 35°27' E 139°40'0 0.0
2018-Jun-17 01:31N 35°27' E 139°40'1 2.0
2018-Jun-17 01:00N 35°27' E 139°41'1 1.6
2018-Jun-17 00:31N 35°27' E 139°42'2 4.2
2018-Jun-17 00:01N 35°27' E 139°39'0 0.0
2018-Jun-16 23:31N 35°27' E 139°39'0 0.0
2018-Jun-16 23:01N 35°27' E 139°39'3 5.2
2018-Jun-16 22:31N 35°27' E 139°43'5 9.7
2018-Jun-16 22:00N 35°30' E 139°48'2 3.5
2018-Jun-16 21:30N 35°31' E 139°46'4 7.1
2018-Jun-16 21:00N 35°29' E 139°42'3 6.1
2018-Jun-16 20:31N 35°27' E 139°40'0 0.0
2018-Jun-16 20:00N 35°27' E 139°40'0 0.0
2018-Jun-16 19:30N 35°27' E 139°40'0 0.0
2018-Jun-16 19:00N 35°27' E 139°40'0 0.0
2018-Jun-16 18:30N 35°27' E 139°40'0 0.0
2018-Jun-16 18:01N 35°27' E 139°40'0 0.0
2018-Jun-16 17:31N 35°27' E 139°40'0 0.0
2018-Jun-16 17:01N 35°27' E 139°40'0 0.0
2018-Jun-16 16:31N 35°27' E 139°40'0 0.0
2018-Jun-16 16:01N 35°27' E 139°40'0 0.0
2018-Jun-16 15:30N 35°27' E 139°40'0 0.0
2018-Jun-16 15:01N 35°27' E 139°40'0 0.0
2018-Jun-16 14:31N 35°27' E 139°40'0 0.0
2018-Jun-16 14:01N 35°27' E 139°40'0 0.0
2018-Jun-16 13:30N 35°27' E 139°40'0 0.0
2018-Jun-16 13:01N 35°27' E 139°40'0 0.0
2018-Jun-16 12:30N 35°27' E 139°40'0 0.0
2018-Jun-16 12:00N 35°27' E 139°40'0 0.0
2018-Jun-16 11:31N 35°27' E 139°40'0 0.0
2018-Jun-16 11:01N 35°27' E 139°40'0 0.0
2018-Jun-16 10:31N 35°27' E 139°40'0 0.0
2018-Jun-16 10:01N 35°27' E 139°40'0 0.0
2018-Jun-16 09:31N 35°27' E 139°40'0 0.0
2018-Jun-16 09:01N 35°27' E 139°40'0 0.0
2018-Jun-16 08:31N 35°27' E 139°40'0 0.0
2018-Jun-16 08:00N 35°27' E 139°40'0 0.0
2018-Jun-16 07:31N 35°27' E 139°40'0 0.0
2018-Jun-16 07:00N 35°27' E 139°40'2 3.6
2018-Jun-16 06:30N 35°28' E 139°41'4 8.0
2018-Jun-16 06:01N 35°30' E 139°45'1 1.8
2018-Jun-16 05:31N 35°31' E 139°46'1 2.8
2018-Jun-16 05:00N 35°30' E 139°45'3 6.8
2018-Jun-16 04:30N 35°27' E 139°43'1 1.8
2018-Jun-16 04:00N 35°28' E 139°44'0 0.4
2018-Jun-16 03:30N 35°28' E 139°44'0 0.0
2018-Jun-16 03:01N 35°28' E 139°44'0 0.0
2018-Jun-16 02:30N 35°28' E 139°44'1 2.1
2018-Jun-16 02:01N 35°29' E 139°45'1 2.5
2018-Jun-16 01:29N 35°30' E 139°46'1 2.5
2018-Jun-16 01:01N 35°30' E 139°47'1 1.9
2018-Jun-16 00:31N 35°29' E 139°46'4 7.9
2018-Jun-16 00:01N 35°27' E 139°42'2 3.3
2018-Jun-15 23:31N 35°27' E 139°40'0 0.0
2018-Jun-15 23:01N 35°27' E 139°40'0 0.0
2018-Jun-15 22:31N 35°27' E 139°40'0 0.0
2018-Jun-15 22:01N 35°27' E 139°40'0 0.0
2018-Jun-15 21:31N 35°27' E 139°40'0 0.0
2018-Jun-15 21:01N 35°27' E 139°40'0 0.0
2018-Jun-15 20:30N 35°27' E 139°40'0 0.0
2018-Jun-15 20:01N 35°27' E 139°40'0 0.0
2018-Jun-15 19:30N 35°27' E 139°40'0 0.0
2018-Jun-15 19:01N 35°27' E 139°40'0 0.0
2018-Jun-15 18:31N 35°27' E 139°40'0 0.0
2018-Jun-15 18:01N 35°27' E 139°40'0 0.0
2018-Jun-15 17:31N 35°27' E 139°40'0 0.0
2018-Jun-15 17:01N 35°27' E 139°40'0 0.0
2018-Jun-15 16:31N 35°27' E 139°40'0 0.0
2018-Jun-15 16:01N 35°27' E 139°40'0 0.0
2018-Jun-15 15:31N 35°27' E 139°40'0 0.0
2018-Jun-15 15:01N 35°27' E 139°40'0 0.0
2018-Jun-15 14:31N 35°27' E 139°40'0 0.0
2018-Jun-15 14:01N 35°27' E 139°40'0 0.0
2018-Jun-15 13:31N 35°27' E 139°40'0 0.0
2018-Jun-15 13:00N 35°27' E 139°40'0 0.0
2018-Jun-15 12:31N 35°27' E 139°40'0 0.0
2018-Jun-15 12:01N 35°27' E 139°40'0 0.0
2018-Jun-15 11:31N 35°27' E 139°40'0 0.0
2018-Jun-15 11:01N 35°27' E 139°40'0 0.0
2018-Jun-15 10:31N 35°27' E 139°40'0 0.0
2018-Jun-15 10:01N 35°27' E 139°40'0 0.0
2018-Jun-15 09:29N 35°27' E 139°40'0 0.0
2018-Jun-15 09:00N 35°27' E 139°40'0 0.0
2018-Jun-15 08:31N 35°27' E 139°40'0 0.0
2018-Jun-15 08:01N 35°27' E 139°40'0 0.0
2018-Jun-15 07:31N 35°27' E 139°40'0 0.0
2018-Jun-15 07:01N 35°27' E 139°40'0 0.0
2018-Jun-15 06:31N 35°27' E 139°40'0 0.0
2018-Jun-15 06:00N 35°27' E 139°40'0 0.0
2018-Jun-15 05:31N 35°27' E 139°40'0 0.0
2018-Jun-15 05:01N 35°27' E 139°40'0 0.0
2018-Jun-15 04:31N 35°27' E 139°40'0 0.0
2018-Jun-15 04:01N 35°27' E 139°40'0 0.0
2018-Jun-15 03:30N 35°27' E 139°40'0 0.0
2018-Jun-15 03:01N 35°27' E 139°40'0 0.0
2018-Jun-15 02:31N 35°27' E 139°40'0 0.0
2018-Jun-15 02:00N 35°27' E 139°40'0 0.0
2018-Jun-15 01:31N 35°27' E 139°40'0 0.0
2018-Jun-15 01:01N 35°27' E 139°40'0 0.0
2018-Jun-15 00:30N 35°27' E 139°40'0 0.0
2018-Jun-15 00:01N 35°27' E 139°40'0 0.0
2018-Jun-14 23:31N 35°27' E 139°40'0 0.0
2018-Jun-14 23:01N 35°27' E 139°40'2 3.1
2018-Jun-14 22:31N 35°28' E 139°41'0 0.3
2018-Jun-14 22:01N 35°28' E 139°41'1 1.4
2018-Jun-14 21:30N 35°28' E 139°42'1 1.9
2018-Jun-14 21:00N 35°28' E 139°42'0 0.0
2018-Jun-14 20:31N 35°28' E 139°42'0 0.0
2018-Jun-14 20:01N 35°28' E 139°42'0 0.4
2018-Jun-14 19:31N 35°28' E 139°42'0 0.9
2018-Jun-14 19:01N 35°28' E 139°41'0 0.0
2018-Jun-14 18:30N 35°28' E 139°41'1 2.6
2018-Jun-14 18:01N 35°27' E 139°40'0 0.0
2018-Jun-14 17:31N 35°27' E 139°40'0 0.0
2018-Jun-14 17:01N 35°27' E 139°40'0 0.0
2018-Jun-14 16:31N 35°27' E 139°40'0 0.0
2018-Jun-14 16:00N 35°27' E 139°40'0 0.0
2018-Jun-14 15:31N 35°27' E 139°40'0 0.0
2018-Jun-14 15:00N 35°27' E 139°40'0 0.0
2018-Jun-14 14:30N 35°27' E 139°40'0 0.0
2018-Jun-14 14:01N 35°27' E 139°40'0 0.0
2018-Jun-14 13:31N 35°27' E 139°40'0 0.0
2018-Jun-14 13:01N 35°27' E 139°40'0 0.0
2018-Jun-14 12:31N 35°27' E 139°40'0 0.0
2018-Jun-14 12:01N 35°27' E 139°40'0 0.0
2018-Jun-14 11:31N 35°27' E 139°40'0 0.0
2018-Jun-14 11:01N 35°27' E 139°40'0 0.0
2018-Jun-14 10:31N 35°27' E 139°40'0 0.6
2018-Jun-14 10:01N 35°27' E 139°41'0 0.4
2018-Jun-14 09:30N 35°27' E 139°40'0 0.3
2018-Jun-14 09:01N 35°27' E 139°41'0 0.0
2018-Jun-14 08:30N 35°27' E 139°41'3 5.7
2018-Jun-14 08:01N 35°29' E 139°42'4 6.7
2018-Jun-14 07:28N 35°31' E 139°46'1 2.3
2018-Jun-14 07:00N 35°30' E 139°45'3 6.7
2018-Jun-14 06:31N 35°28' E 139°42'2 3.6
2018-Jun-14 06:00N 35°27' E 139°44'0 0.5
2018-Jun-14 05:31N 35°26' E 139°44'2 3.2
2018-Jun-14 05:00N 35°28' E 139°44'0 0.0
2018-Jun-14 04:30N 35°28' E 139°44'0 0.9
2018-Jun-14 03:59N 35°28' E 139°43'0 0.0
2018-Jun-14 03:25N 35°28' E 139°43'0 0.0
2018-Jun-14 02:57N 35°28' E 139°43'0 1.1
2018-Jun-14 02:30N 35°27' E 139°43'2 4.4
2018-Jun-14 02:01N 35°26' E 139°45'2 4.7
2018-Jun-14 01:31N 35°27' E 139°43'0 1.0
2018-Jun-14 01:01N 35°27' E 139°42'0 0.0
2018-Jun-14 00:30N 35°27' E 139°42'0 0.0
2018-Jun-14 00:01N 35°27' E 139°42'0 0.0
2018-Jun-13 23:31N 35°27' E 139°42'0 0.0
2018-Jun-13 23:00N 35°27' E 139°42'1 1.7
2018-Jun-13 22:31N 35°28' E 139°42'1 1.9
2018-Jun-13 22:01N 35°27' E 139°43'0 0.8
2018-Jun-13 21:30N 35°27' E 139°43'2 4.0
2018-Jun-13 21:01N 35°27' E 139°40'0 0.0
2018-Jun-13 20:31N 35°27' E 139°40'0 0.0
2018-Jun-13 20:01N 35°27' E 139°40'0 0.0
2018-Jun-13 19:30N 35°27' E 139°40'0 0.0
2018-Jun-13 19:01N 35°27' E 139°40'0 0.0
2018-Jun-13 18:30N 35°27' E 139°40'0 0.0
2018-Jun-13 18:01N 35°27' E 139°40'0 0.0
2018-Jun-13 17:31N 35°27' E 139°40'0 0.0
2018-Jun-13 17:01N 35°27' E 139°40'0 0.0
2018-Jun-13 16:30N 35°27' E 139°40'0 0.0
2018-Jun-13 16:01N 35°27' E 139°40'0 0.0
2018-Jun-13 15:31N 35°27' E 139°40'0 0.0
2018-Jun-13 14:59N 35°27' E 139°40'0 0.0
2018-Jun-13 14:30N 35°27' E 139°40'0 0.0
2018-Jun-13 14:01N 35°27' E 139°40'0 0.0
2018-Jun-13 13:30N 35°27' E 139°40'0 0.0
2018-Jun-13 13:01N 35°27' E 139°40'0 0.0
2018-Jun-13 12:31N 35°27' E 139°40'0 0.0
2018-Jun-13 12:01N 35°27' E 139°40'0 0.0
2018-Jun-13 11:31N 35°27' E 139°40'0 0.0
2018-Jun-13 11:00N 35°27' E 139°40'0 0.0
2018-Jun-13 10:31N 35°27' E 139°40'0 0.0
2018-Jun-13 10:00N 35°27' E 139°40'0 0.0
2018-Jun-13 09:31N 35°27' E 139°40'0 0.0
2018-Jun-13 09:01N 35°27' E 139°40'0 0.9
2018-Jun-13 08:31N 35°27' E 139°41'4 7.4
2018-Jun-13 08:01N 35°30' E 139°44'2 4.8
2018-Jun-13 07:30N 35°31' E 139°46'1 1.5
2018-Jun-13 06:55N 35°30' E 139°47'2 5.7
2018-Jun-13 06:31N 35°28' E 139°47'3 5.2
2018-Jun-13 06:00N 35°30' E 139°47'1 1.6
2018-Jun-13 05:30N 35°31' E 139°46'2 4.1
2018-Jun-13 05:01N 35°30' E 139°44'3 5.5
2018-Jun-13 04:31N 35°27' E 139°44'1 1.2
2018-Jun-13 04:01N 35°26' E 139°44'4 7.0
2018-Jun-13 03:31N 35°27' E 139°40'1 1.6
2018-Jun-13 03:01N 35°27' E 139°40'0 0.0
2018-Jun-13 02:31N 35°27' E 139°40'0 0.0
2018-Jun-13 02:01N 35°27' E 139°40'0 0.0
2018-Jun-13 01:31N 35°27' E 139°40'0 0.0
2018-Jun-13 01:00N 35°27' E 139°40'0 0.0
2018-Jun-13 00:30N 35°27' E 139°40'0 0.0
2018-Jun-13 00:00N 35°27' E 139°40'0 0.0
2018-Jun-12 23:31N 35°27' E 139°40'0 0.0
2018-Jun-12 23:01N 35°27' E 139°40'0 0.0
2018-Jun-12 22:30N 35°27' E 139°40'0 0.0
2018-Jun-12 22:00N 35°27' E 139°40'0 0.0
2018-Jun-12 21:31N 35°27' E 139°40'0 0.0
2018-Jun-12 21:00N 35°27' E 139°40'0 0.0
2018-Jun-12 20:31N 35°27' E 139°40'0 0.0
2018-Jun-12 20:00N 35°27' E 139°40'0 0.0
2018-Jun-12 19:31N 35°27' E 139°40'0 0.0
2018-Jun-12 19:01N 35°27' E 139°40'0 0.0
2018-Jun-12 18:31N 35°27' E 139°40'0 0.0
2018-Jun-12 18:00N 35°27' E 139°40'0 0.0
2018-Jun-12 17:30N 35°27' E 139°40'0 0.0
2018-Jun-12 17:00N 35°27' E 139°40'0 0.0
2018-Jun-12 16:31N 35°27' E 139°40'0 0.0
2018-Jun-12 16:01N 35°27' E 139°40'0 0.0
2018-Jun-12 15:31N 35°27' E 139°40'0 0.0
2018-Jun-12 15:00N 35°27' E 139°40'0 0.0
2018-Jun-12 14:31N 35°27' E 139°40'0 0.0
2018-Jun-12 14:00N 35°27' E 139°40'0 0.0
2018-Jun-12 13:31N 35°27' E 139°40'0 0.0
2018-Jun-12 13:00N 35°27' E 139°40'0 0.0
2018-Jun-12 12:31N 35°27' E 139°40'0 0.0
2018-Jun-12 12:01N 35°27' E 139°40'0 0.0
2018-Jun-12 11:30N 35°27' E 139°40'0 0.0
2018-Jun-12 11:01N 35°27' E 139°40'0 0.0
2018-Jun-12 10:31N 35°27' E 139°40'0 0.0
2018-Jun-12 10:01N 35°27' E 139°40'0 0.0
2018-Jun-12 09:31N 35°27' E 139°40'0 0.0
2018-Jun-12 09:01N 35°27' E 139°40'0 0.0
2018-Jun-12 08:30N 35°27' E 139°40'0 0.0
2018-Jun-12 08:01N 35°27' E 139°40'0 0.0
2018-Jun-12 07:30N 35°27' E 139°40'0 0.0
2018-Jun-12 07:01N 35°27' E 139°40'0 0.0
2018-Jun-12 06:31N 35°27' E 139°40'0 0.0
2018-Jun-12 06:00N 35°27' E 139°40'0 0.0
2018-Jun-12 05:31N 35°27' E 139°40'0 0.0
2018-Jun-12 05:01N 35°27' E 139°40'0 0.0
2018-Jun-12 04:31N 35°27' E 139°40'0 0.0
2018-Jun-12 04:01N 35°27' E 139°40'0 0.0
2018-Jun-12 03:31N 35°27' E 139°40'0 0.0
2018-Jun-12 03:01N 35°27' E 139°40'0 0.0
2018-Jun-12 02:30N 35°27' E 139°40'0 0.0
2018-Jun-12 02:01N 35°27' E 139°40'0 0.0
2018-Jun-12 01:30N 35°27' E 139°40'0 0.0
2018-Jun-12 01:00N 35°27' E 139°40'0 0.0
2018-Jun-12 00:30N 35°27' E 139°40'0 0.0
2018-Jun-12 00:01N 35°27' E 139°40'0 0.0
2018-Jun-11 23:31N 35°27' E 139°40'0 0.0
2018-Jun-11 23:00N 35°27' E 139°40'1 2.1
2018-Jun-11 22:31N 35°27' E 139°41'0 0.9
2018-Jun-11 22:01N 35°27' E 139°42'2 4.1
2018-Jun-11 21:30N 35°25' E 139°43'2 3.5
2018-Jun-11 21:00N 35°26' E 139°42'1 1.2
2018-Jun-11 20:30N 35°26' E 139°41'0 0.1
2018-Jun-11 20:01N 35°26' E 139°41'0 0.8
2018-Jun-11 19:31N 35°27' E 139°41'0 0.0
2018-Jun-11 18:59N 35°27' E 139°41'0 0.0
2018-Jun-11 18:31N 35°27' E 139°41'0 0.0
2018-Jun-11 18:01N 35°27' E 139°41'0 0.0
2018-Jun-11 17:29N 35°27' E 139°41'0 0.0
2018-Jun-11 17:01N 35°27' E 139°41'0 0.0
2018-Jun-11 16:30N 35°27' E 139°41'0 0.0
2018-Jun-11 16:01N 35°27' E 139°41'0 0.0
2018-Jun-11 15:30N 35°27' E 139°41'0 0.0
2018-Jun-11 15:01N 35°27' E 139°41'0 0.0
2018-Jun-11 14:30N 35°27' E 139°41'0 0.0
2018-Jun-11 14:00N 35°27' E 139°41'0 0.0
2018-Jun-11 13:30N 35°27' E 139°41'0 0.0
2018-Jun-11 13:01N 35°27' E 139°41'0 0.0
2018-Jun-11 12:30N 35°27' E 139°41'0 0.0
2018-Jun-11 12:01N 35°27' E 139°41'0 0.0
2018-Jun-11 11:31N 35°27' E 139°41'0 0.0
2018-Jun-11 11:00N 35°27' E 139°41'0 0.0
2018-Jun-11 10:30N 35°27' E 139°41'0 0.4
2018-Jun-11 10:01N 35°27' E 139°41'1 2.2
2018-Jun-11 09:30N 35°26' E 139°42'0 0.5
2018-Jun-11 09:01N 35°27' E 139°42'0 0.6
2018-Jun-11 08:31N 35°27' E 139°42'0 0.0
2018-Jun-11 08:01N 35°27' E 139°42'0 0.0
2018-Jun-11 07:30N 35°27' E 139°42'1 1.5
2018-Jun-11 07:00N 35°27' E 139°41'0 0.3
2018-Jun-11 06:31N 35°27' E 139°41'1 2.0
2018-Jun-11 06:00N 35°27' E 139°40'0 0.0
2018-Jun-11 05:31N 35°27' E 139°40'0 0.0
2018-Jun-11 05:01N 35°27' E 139°40'0 0.0
2018-Jun-11 04:31N 35°27' E 139°40'0 0.0
2018-Jun-11 04:00N 35°27' E 139°40'0 0.0
2018-Jun-11 03:30N 35°27' E 139°40'0 0.0
2018-Jun-11 03:01N 35°27' E 139°40'0 0.0
2018-Jun-11 02:31N 35°27' E 139°40'0 0.0
2018-Jun-11 02:01N 35°27' E 139°40'0 0.0
2018-Jun-11 01:30N 35°27' E 139°40'0 0.0
2018-Jun-11 01:01N 35°27' E 139°40'0 0.0
2018-Jun-11 00:31N 35°27' E 139°40'0 0.0
2018-Jun-11 00:01N 35°27' E 139°40'0 0.0
2018-Jun-10 23:31N 35°27' E 139°40'0 0.0
2018-Jun-10 22:59N 35°27' E 139°40'0 0.0
2018-Jun-10 22:31N 35°27' E 139°40'0 0.0
2018-Jun-10 22:01N 35°27' E 139°40'0 0.0
2018-Jun-10 21:30N 35°27' E 139°40'0 0.0
2018-Jun-10 21:01N 35°27' E 139°40'0 0.0
2018-Jun-10 20:31N 35°27' E 139°40'0 0.0
2018-Jun-10 20:01N 35°27' E 139°40'0 0.0
2018-Jun-10 19:31N 35°27' E 139°40'0 0.0
2018-Jun-10 19:00N 35°27' E 139°40'0 0.0
2018-Jun-10 18:31N 35°27' E 139°40'0 0.0
2018-Jun-10 18:00N 35°27' E 139°40'0 0.0
2018-Jun-10 17:31N 35°27' E 139°40'0 0.0
2018-Jun-10 17:01N 35°27' E 139°40'0 0.0
2018-Jun-10 16:30N 35°27' E 139°40'0 0.0
2018-Jun-10 16:01N 35°27' E 139°40'0 0.0
2018-Jun-10 15:31N 35°27' E 139°40'0 0.0
2018-Jun-10 15:01N 35°27' E 139°40'0 0.0
2018-Jun-10 14:00N 35°27' E 139°40'0 0.0
2018-Jun-10 13:30N 35°27' E 139°40'0 0.0
2018-Jun-10 13:00N 35°27' E 139°40'0 0.0
2018-Jun-10 12:31N 35°27' E 139°40'0 0.0
2018-Jun-10 12:00N 35°27' E 139°40'0 0.0
2018-Jun-10 11:31N 35°27' E 139°40'0 0.0
2018-Jun-10 11:00N 35°27' E 139°40'0 0.0
2018-Jun-10 10:31N 35°27' E 139°40'0 0.0
2018-Jun-10 10:01N 35°27' E 139°40'0 0.0
2018-Jun-10 09:30N 35°27' E 139°40'0 0.0
2018-Jun-10 09:01N 35°27' E 139°40'0 0.0
2018-Jun-10 08:31N 35°27' E 139°40'0 0.0
2018-Jun-10 08:00N 35°27' E 139°40'0 0.0
2018-Jun-10 07:31N 35°27' E 139°40'0 0.0
2018-Jun-10 07:01N 35°27' E 139°40'0 0.0
2018-Jun-10 06:31N 35°27' E 139°40'0 0.0
2018-Jun-10 06:01N 35°27' E 139°40'0 0.0
2018-Jun-10 05:31N 35°27' E 139°40'0 0.0
2018-Jun-10 05:00N 35°27' E 139°40'0 0.0
2018-Jun-10 04:31N 35°27' E 139°40'0 0.0
2018-Jun-10 04:00N 35°27' E 139°40'0 0.0
2018-Jun-10 03:31N 35°27' E 139°40'0 0.0
2018-Jun-10 03:01N 35°27' E 139°40'0 0.0
2018-Jun-10 02:31N 35°27' E 139°40'1 1.3
2018-Jun-10 02:00N 35°27' E 139°40'1 2.0
2018-Jun-10 01:31N 35°28' E 139°41'1 1.6
2018-Jun-10 01:00N 35°28' E 139°42'3 6.3
2018-Jun-10 00:31N 35°26' E 139°44'2 4.0
2018-Jun-10 00:01N 35°28' E 139°44'0 0.0
2018-Jun-09 23:31N 35°28' E 139°44'0 0.0
2018-Jun-09 23:00N 35°28' E 139°44'2 3.9
2018-Jun-09 22:30N 35°29' E 139°45'1 1.7
2018-Jun-09 21:55N 35°28' E 139°45'1 1.7
2018-Jun-09 21:30N 35°28' E 139°46'3 6.6
2018-Jun-09 21:01N 35°27' E 139°42'1 2.5
2018-Jun-09 20:31N 35°27' E 139°40'0 0.0
2018-Jun-09 19:57N 35°27' E 139°40'0 0.0
2018-Jun-09 19:31N 35°27' E 139°40'0 0.0
2018-Jun-09 19:00N 35°27' E 139°40'0 0.0
2018-Jun-09 18:30N 35°27' E 139°40'0 0.0
2018-Jun-09 18:01N 35°27' E 139°40'0 0.0
2018-Jun-09 17:30N 35°27' E 139°40'0 0.0
2018-Jun-09 16:59N 35°27' E 139°40'0 0.0
2018-Jun-09 16:31N 35°27' E 139°40'0 0.0
2018-Jun-09 16:01N 35°27' E 139°40'0 0.0
2018-Jun-09 15:01N 35°27' E 139°40'0 0.0
2018-Jun-09 14:30N 35°27' E 139°40'0 0.0
2018-Jun-09 13:59N 35°27' E 139°40'0 0.0
2018-Jun-09 13:30N 35°27' E 139°40'0 0.0
2018-Jun-09 13:01N 35°27' E 139°40'0 0.0
2018-Jun-09 12:30N 35°27' E 139°40'0 0.0
2018-Jun-09 12:01N 35°27' E 139°40'0 0.0
2018-Jun-09 11:31N 35°27' E 139°40'0 0.0
2018-Jun-09 11:00N 35°27' E 139°40'0 0.2
2018-Jun-09 10:31N 35°27' E 139°40'3 6.8
2018-Jun-09 10:01N 35°28' E 139°44'3 6.0
2018-Jun-09 09:31N 35°30' E 139°46'1 2.1
2018-Jun-09 09:01N 35°31' E 139°45'4 8.0
2018-Jun-09 08:30N 35°28' E 139°41'2 3.4
2018-Jun-09 08:01N 35°27' E 139°41'0 0.0
2018-Jun-09 07:31N 35°27' E 139°41'0 0.0
2018-Jun-09 07:01N 35°27' E 139°41'0 0.0
2018-Jun-09 06:31N 35°27' E 139°41'0 0.0
2018-Jun-09 06:00N 35°27' E 139°41'0 0.0
2018-Jun-09 05:31N 35°27' E 139°41'0 0.0
2018-Jun-09 05:01N 35°27' E 139°41'0 0.0
2018-Jun-09 04:30N 35°27' E 139°41'0 0.0
2018-Jun-09 04:00N 35°27' E 139°41'0 0.0
2018-Jun-09 03:30N 35°27' E 139°41'0 0.1
2018-Jun-09 03:00N 35°27' E 139°41'0 0.0
2018-Jun-09 02:30N 35°27' E 139°41'0 0.0
2018-Jun-09 02:01N 35°27' E 139°41'0 0.0
2018-Jun-09 01:29N 35°27' E 139°41'0 0.0
2018-Jun-09 01:01N 35°27' E 139°41'3 6.0
2018-Jun-09 00:31N 35°29' E 139°43'2 4.9
2018-Jun-09 00:00N 35°31' E 139°45'1 1.3
2018-Jun-08 23:30N 35°30' E 139°45'3 6.2
2018-Jun-08 23:01N 35°28' E 139°42'3 6.0
2018-Jun-08 22:29N 35°28' E 139°46'2 3.7
2018-Jun-08 22:01N 35°28' E 139°44'3 6.6
2018-Jun-08 21:30N 35°27' E 139°40'0 0.0
2018-Jun-08 21:00N 35°27' E 139°40'0 0.0
2018-Jun-08 20:31N 35°27' E 139°40'0 0.0
2018-Jun-08 19:58N 35°27' E 139°40'0 0.0
2018-Jun-08 19:31N 35°27' E 139°40'0 0.0
2018-Jun-08 19:01N 35°27' E 139°40'0 0.0
2018-Jun-08 18:31N 35°27' E 139°40'0 0.0
2018-Jun-08 18:00N 35°27' E 139°40'0 0.0
2018-Jun-08 17:30N 35°27' E 139°40'0 0.0
2018-Jun-08 16:59N 35°27' E 139°40'0 0.0
2018-Jun-08 16:31N 35°27' E 139°40'0 0.0
2018-Jun-08 16:01N 35°27' E 139°40'0 0.0
2018-Jun-08 15:31N 35°27' E 139°40'0 0.0
2018-Jun-08 15:00N 35°27' E 139°40'  

Dump ship's entire track history